Latest  Newer  Older  Last 2 hours slideshow  Last 24 hours slideshow  Refresh every 5 minutes 
Current image  Latest image  Rain/snow radar  Cloud coverage sat images 

All time is UTC (add 2 hours to UTC in wintertime, 3 hours to UTC in DST for Latvia local time)

2021/01/28 03:50 EVRA 280350Z VRB02KT 9999 OVC027 M01/M02 Q1005 R36/390195 NOSIG
2021/01/28 03:50 EVLA 280350Z AUTO 13006KT 9999 BKN017/// OVC024/// M00/M02 Q1004
2021/01/28 03:50 EVVA 280350Z AUTO 13002KT 9999 OVC023 M00/M01 Q1004
2021/01/28 03:50 EYKA 280350Z VRB01KT 9999 OVC024 M02/M06 Q1007
2021/01/28 03:50 EYPA 280350Z AUTO 15006KT 9999 -UP OVC018/// M00/M01 Q1005
2021/01/28 03:50 EYSA 280350Z 28004KT 9999 OVC019 M02/M05 Q1006 R14L/29//95 R14R/29//95 WHT NOSIG
2021/01/28 03:50 EYVI 280350Z 31007KT 9999 OVC020 M02/M05 Q1005 R01/5/0294 NOSIG
2021/01/28 03:50 EEKA 280350Z 21004KT 180V250 9999 OVC024 M02/M03 Q1004
2021/01/28 03:50 EEKE 280350Z AUTO 00000KT 9999NDV OVC028 M01/M02 Q1004

2021/01/28 03:50 EETN 280350Z 29009KT 9999 OVC014 M01/M03 Q1003 R08/810295 NOSIG
2021/01/28 03:50 EETU 280350Z AUTO 27007KT 3100 -SN BKN007/// BKN009/// OVC020/// M01/M02 Q1003
   RIGA AIRPORT     EVRA               56 55N  023 58E   10   X     T          6 LV
   LIEPAJA INTL     EVLA        26406  56 31N  021 06E    4   X                8 LV
   VENTPILS         EVVA               57 21N  021 33E    6   X                8 LV
   KAUNAS           EYKA               54 54N  023 55E   77   X     T          6 LT
   PALANGA INTL     EYPA               55 55N  021 03E   10   X                6 LT
   SIAULIAI INTL    EYSA               55 54N  023 24E  135   X     T          6 LT
   VILNIUS INTL     EYVI        26730  54 38N  025 17E  197   X     T          6 LT
   KARDLA           EEKA        26116  58 59N  022 50E    4   X                8 EE
   KURESSAARE       EEKE               58 14N  022 31E    4   X                8 EE
   PARNU            EEPU               58 25N  024 28E   14   X                8 EE
   TALLINN          EETN        26038  59 24N  024 49E   40   X     T          8 EE
   TARTU            EETU               58 19N  026 41E   67   X                8 EE